sensor_id;sensor_type;location;lat;lon;timestamp;temperature;humidity
30134;DHT22;16946;49.984;10.672;2022-08-16T00:00:24;19.60;99.90
30134;DHT22;16946;49.984;10.672;2022-08-16T00:00:55;19.60;99.90
30134;DHT22;16946;49.984;10.672;2022-08-16T00:01:26;19.70;99.90
30134;DHT22;16946;49.984;10.672;2022-08-16T00:01:57;19.70;99.90
30134;DHT22;16946;49.984;10.672;2022-08-16T00:02:27;19.70;99.90
30134;DHT22;16946;49.984;10.672;2022-08-16T00:02:58;19.70;99.90
30134;DHT22;16946;49.984;10.672;2022-08-16T00:03:29;19.80;99.90
30134;DHT22;16946;49.984;10.672;2022-08-16T00:04:00;19.80;99.90
30134;DHT22;16946;49.984;10.672;2022-08-16T00:04:30;19.80;99.90
30134;DHT22;16946;49.984;10.672;2022-08-16T00:05:03;19.90;99.90
30134;DHT22;16946;49.984;10.672;2022-08-16T00:05:34;19.80;99.90
30134;DHT22;16946;49.984;10.672;2022-08-16T00:06:05;19.80;99.90
30134;DHT22;16946;49.984;10.672;2022-08-16T00:06:36;19.80;99.90
30134;DHT22;16946;49.984;10.672;2022-08-16T00:07:07;19.80;99.90
30134;DHT22;16946;49.984;10.672;2022-08-16T00:07:38;19.90;99.90
30134;DHT22;16946;49.984;10.672;2022-08-16T00:08:10;19.90;99.90
30134;DHT22;16946;49.984;10.672;2022-08-16T00:08:40;20.00;99.90
30134;DHT22;16946;49.984;10.672;2022-08-16T00:09:11;19.90;99.90
30134;DHT22;16946;49.984;10.672;2022-08-16T00:09:42;19.80;99.90
30134;DHT22;16946;49.984;10.672;2022-08-16T00:10:15;19.70;99.90
30134;DHT22;16946;49.984;10.672;2022-08-16T00:10:46;19.70;99.90
30134;DHT22;16946;49.984;10.672;2022-08-16T00:11:18;19.60;99.90
30134;DHT22;16946;49.984;10.672;2022-08-16T00:11:50;19.60;99.90
30134;DHT22;16946;49.984;10.672;2022-08-16T00:12:20;19.60;99.90
30134;DHT22;16946;49.984;10.672;2022-08-16T00:12:51;19.50;99.90
30134;DHT22;16946;49.984;10.672;2022-08-16T00:13:22;19.60;99.90
30134;DHT22;16946;49.984;10.672;2022-08-16T00:13:53;19.60;99.90
30134;DHT22;16946;49.984;10.672;2022-08-16T00:14:27;19.70;99.90
30134;DHT22;16946;49.984;10.672;2022-08-16T00:14:59;19.60;99.90
30134;DHT22;16946;49.984;10.672;2022-08-16T00:15:40;19.60;99.90
30134;DHT22;16946;49.984;10.672;2022-08-16T00:16:11;19.60;99.90
30134;DHT22;16946;49.984;10.672;2022-08-16T00:16:42;19.60;99.90
30134;DHT22;16946;49.984;10.672;2022-08-16T00:17:12;19.60;99.90
30134;DHT22;16946;49.984;10.672;2022-08-16T00:17:43;19.60;99.90
30134;DHT22;16946;49.984;10.672;2022-08-16T00:18:16;19.70;99.90
30134;DHT22;16946;49.984;10.672;2022-08-16T00:18:47;19.60;99.90
30134;DHT22;16946;49.984;10.672;2022-08-16T00:19:22;19.70;99.90
30134;DHT22;16946;49.984;10.672;2022-08-16T00:19:53;19.70;99.90
30134;DHT22;16946;49.984;10.672;2022-08-16T00:20:24;19.80;99.90
30134;DHT22;16946;49.984;10.672;2022-08-16T00:20:55;19.80;99.90
30134;DHT22;16946;49.984;10.672;2022-08-16T00:21:26;19.80;99.90
30134;DHT22;16946;49.984;10.672;2022-08-16T00:21:56;19.90;99.90
30134;DHT22;16946;49.984;10.672;2022-08-16T00:22:27;19.80;99.90
30134;DHT22;16946;49.984;10.672;2022-08-16T00:22:58;19.80;99.90
30134;DHT22;16946;49.984;10.672;2022-08-16T00:23:28;19.80;99.90
30134;DHT22;16946;49.984;10.672;2022-08-16T00:24:00;19.90;99.90
30134;DHT22;16946;49.984;10.672;2022-08-16T00:24:33;19.90;99.90
30134;DHT22;16946;49.984;10.672;2022-08-16T00:25:05;19.90;99.90
30134;DHT22;16946;49.984;10.672;2022-08-16T00:25:36;20.00;99.90
30134;DHT22;16946;49.984;10.672;2022-08-16T00:26:07;20.00;99.90
30134;DHT22;16946;49.984;10.672;2022-08-16T00:26:39;20.00;99.90
30134;DHT22;16946;49.984;10.672;2022-08-16T00:27:11;20.00;99.90
30134;DHT22;16946;49.984;10.672;2022-08-16T00:27:42;19.90;99.90
30134;DHT22;16946;49.984;10.672;2022-08-16T00:28:13;19.90;99.90
30134;DHT22;16946;49.984;10.672;2022-08-16T00:28:43;19.90;99.90
30134;DHT22;16946;49.984;10.672;2022-08-16T00:29:15;19.80;99.90
30134;DHT22;16946;49.984;10.672;2022-08-16T00:29:46;19.70;99.90
30134;DHT22;16946;49.984;10.672;2022-08-16T00:30:17;19.60;99.90
30134;DHT22;16946;49.984;10.672;2022-08-16T00:30:49;19.60;99.90
30134;DHT22;16946;49.984;10.672;2022-08-16T00:31:19;19.60;99.90
30134;DHT22;16946;49.984;10.672;2022-08-16T00:31:51;19.60;99.90
30134;DHT22;16946;49.984;10.672;2022-08-16T00:32:21;19.60;99.90
30134;DHT22;16946;49.984;10.672;2022-08-16T00:32:54;19.60;99.90
30134;DHT22;16946;49.984;10.672;2022-08-16T00:33:24;19.50;99.90
30134;DHT22;16946;49.984;10.672;2022-08-16T00:33:55;19.50;99.90
30134;DHT22;16946;49.984;10.672;2022-08-16T00:34:26;19.40;99.90
30134;DHT22;16946;49.984;10.672;2022-08-16T00:34:56;19.30;99.90
30134;DHT22;16946;49.984;10.672;2022-08-16T00:35:34;19.10;99.90
30134;DHT22;16946;49.984;10.672;2022-08-16T00:36:05;19.00;99.90
30134;DHT22;16946;49.984;10.672;2022-08-16T00:36:36;18.90;99.90
30134;DHT22;16946;49.984;10.672;2022-08-16T00:37:06;18.90;99.90
30134;DHT22;16946;49.984;10.672;2022-08-16T00:37:37;18.80;99.90
30134;DHT22;16946;49.984;10.672;2022-08-16T00:38:08;18.80;99.90
30134;DHT22;16946;49.984;10.672;2022-08-16T00:38:39;18.80;99.90
30134;DHT22;16946;49.984;10.672;2022-08-16T00:39:09;18.90;99.90
30134;DHT22;16946;49.984;10.672;2022-08-16T00:39:40;18.90;99.90
30134;DHT22;16946;49.984;10.672;2022-08-16T00:40:17;18.90;99.90
30134;DHT22;16946;49.984;10.672;2022-08-16T00:40:50;18.90;99.90
30134;DHT22;16946;49.984;10.672;2022-08-16T00:41:21;18.90;99.90
30134;DHT22;16946;49.984;10.672;2022-08-16T00:41:53;18.90;99.90
30134;DHT22;16946;49.984;10.672;2022-08-16T00:42:26;18.90;99.90
30134;DHT22;16946;49.984;10.672;2022-08-16T00:42:58;18.90;99.90
30134;DHT22;16946;49.984;10.672;2022-08-16T00:43:34;19.00;99.90
30134;DHT22;16946;49.984;10.672;2022-08-16T00:44:05;19.00;99.90
30134;DHT22;16946;49.984;10.672;2022-08-16T00:44:53;19.00;99.90
30134;DHT22;16946;49.984;10.672;2022-08-16T00:45:37;19.00;99.90
30134;DHT22;16946;49.984;10.672;2022-08-16T00:47:03;19.00;99.90
30134;DHT22;16946;49.984;10.672;2022-08-16T00:47:42;19.00;99.90
30134;DHT22;16946;49.984;10.672;2022-08-16T00:48:14;18.90;99.90
30134;DHT22;16946;49.984;10.672;2022-08-16T00:48:45;18.90;99.90
30134;DHT22;16946;49.984;10.672;2022-08-16T00:49:15;18.80;99.90
30134;DHT22;16946;49.984;10.672;2022-08-16T00:49:46;18.80;99.90
30134;DHT22;16946;49.984;10.672;2022-08-16T00:50:20;18.80;99.90
30134;DHT22;16946;49.984;10.672;2022-08-16T00:50:51;18.80;99.90
30134;DHT22;16946;49.984;10.672;2022-08-16T00:51:23;18.80;99.90
30134;DHT22;16946;49.984;10.672;2022-08-16T00:51:55;18.80;99.90
30134;DHT22;16946;49.984;10.672;2022-08-16T00:52:26;18.80;99.90
30134;DHT22;16946;49.984;10.672;2022-08-16T00:52:56;18.80;99.90
30134;DHT22;16946;49.984;10.672;2022-08-16T00:53:27;18.90;99.90
30134;DHT22;16946;49.984;10.672;2022-08-16T00:53:58;18.90;99.90
30134;DHT22;16946;49.984;10.672;2022-08-16T00:54:29;19.00;99.90
30134;DHT22;16946;49.984;10.672;2022-08-16T00:55:01;18.90;99.90
30134;DHT22;16946;49.984;10.672;2022-08-16T00:55:32;19.00;99.90
30134;DHT22;16946;49.984;10.672;2022-08-16T00:56:08;19.00;99.90
30134;DHT22;16946;49.984;10.672;2022-08-16T00:56:42;19.10;99.90
30134;DHT22;16946;49.984;10.672;2022-08-16T00:57:13;19.20;99.90
30134;DHT22;16946;49.984;10.672;2022-08-16T00:57:43;19.20;99.90
30134;DHT22;16946;49.984;10.672;2022-08-16T00:58:17;19.30;99.90
30134;DHT22;16946;49.984;10.672;2022-08-16T00:58:50;19.30;99.90
30134;DHT22;16946;49.984;10.672;2022-08-16T00:59:22;19.30;99.90
30134;DHT22;16946;49.984;10.672;2022-08-16T00:59:53;19.30;99.90
30134;DHT22;16946;49.984;10.672;2022-08-16T01:00:24;19.30;99.90
30134;DHT22;16946;49.984;10.672;2022-08-16T01:00:58;19.30;99.90
30134;DHT22;16946;49.984;10.672;2022-08-16T01:01:28;19.20;99.90
30134;DHT22;16946;49.984;10.672;2022-08-16T01:02:00;19.10;99.90
30134;DHT22;16946;49.984;10.672;2022-08-16T01:02:31;19.00;99.90
30134;DHT22;16946;49.984;10.672;2022-08-16T01:03:07;19.00;99.90
30134;DHT22;16946;49.984;10.672;2022-08-16T01:03:40;18.90;99.90
30134;DHT22;16946;49.984;10.672;2022-08-16T01:04:13;18.90;99.90
30134;DHT22;16946;49.984;10.672;2022-08-16T01:04:46;18.90;99.90
30134;DHT22;16946;49.984;10.672;2022-08-16T01:05:17;18.90;99.90
30134;DHT22;16946;49.984;10.672;2022-08-16T01:05:48;18.90;99.90
30134;DHT22;16946;49.984;10.672;2022-08-16T01:06:20;18.80;99.90
30134;DHT22;16946;49.984;10.672;2022-08-16T01:06:51;18.70;99.90
30134;DHT22;16946;49.984;10.672;2022-08-16T01:07:22;18.60;99.90
30134;DHT22;16946;49.984;10.672;2022-08-16T01:07:53;18.60;99.90
30134;DHT22;16946;49.984;10.672;2022-08-16T01:08:25;18.50;99.90
30134;DHT22;16946;49.984;10.672;2022-08-16T01:08:57;18.50;99.90
30134;DHT22;16946;49.984;10.672;2022-08-16T01:09:33;18.60;99.90
30134;DHT22;16946;49.984;10.672;2022-08-16T01:10:05;18.50;99.90
30134;DHT22;16946;49.984;10.672;2022-08-16T01:10:36;18.40;99.90
30134;DHT22;16946;49.984;10.672;2022-08-16T01:11:07;18.40;99.90
30134;DHT22;16946;49.984;10.672;2022-08-16T01:11:38;18.30;99.90
30134;DHT22;16946;49.984;10.672;2022-08-16T01:12:10;18.20;99.90
30134;DHT22;16946;49.984;10.672;2022-08-16T01:12:41;18.10;99.90
30134;DHT22;16946;49.984;10.672;2022-08-16T01:13:15;18.10;99.90
30134;DHT22;16946;49.984;10.672;2022-08-16T01:13:48;18.00;99.90
30134;DHT22;16946;49.984;10.672;2022-08-16T01:14:23;18.00;99.90
30134;DHT22;16946;49.984;10.672;2022-08-16T01:14:57;18.00;99.90
30134;DHT22;16946;49.984;10.672;2022-08-16T01:15:29;18.00;99.90
30134;DHT22;16946;49.984;10.672;2022-08-16T01:16:06;18.10;99.90
30134;DHT22;16946;49.984;10.672;2022-08-16T01:16:39;18.10;99.90
30134;DHT22;16946;49.984;10.672;2022-08-16T01:17:12;18.10;99.90
30134;DHT22;16946;49.984;10.672;2022-08-16T01:17:45;18.10;99.90
30134;DHT22;16946;49.984;10.672;2022-08-16T01:18:18;18.10;99.90
30134;DHT22;16946;49.984;10.672;2022-08-16T01:18:58;18.10;99.90
30134;DHT22;16946;49.984;10.672;2022-08-16T01:19:37;18.10;99.90
30134;DHT22;16946;49.984;10.672;2022-08-16T01:20:10;18.10;99.90
30134;DHT22;16946;49.984;10.672;2022-08-16T01:20:47;18.10;99.90
30134;DHT22;16946;49.984;10.672;2022-08-16T01:21:45;18.00;99.90
30134;DHT22;16946;49.984;10.672;2022-08-16T01:22:27;18.00;99.90
30134;DHT22;16946;49.984;10.672;2022-08-16T01:23:16;18.00;99.90
30134;DHT22;16946;49.984;10.672;2022-08-16T01:24:05;18.00;99.90
30134;DHT22;16946;49.984;10.672;2022-08-16T01:24:47;18.00;99.90
30134;DHT22;16946;49.984;10.672;2022-08-16T01:25:27;18.00;99.90
30134;DHT22;16946;49.984;10.672;2022-08-16T01:25:58;18.10;99.90
30134;DHT22;16946;49.984;10.672;2022-08-16T01:26:30;18.20;99.90
30134;DHT22;16946;49.984;10.672;2022-08-16T01:27:09;18.20;99.90
30134;DHT22;16946;49.984;10.672;2022-08-16T01:27:46;18.30;99.90
30134;DHT22;16946;49.984;10.672;2022-08-16T01:28:18;18.20;99.90
30134;DHT22;16946;49.984;10.672;2022-08-16T01:28:50;18.10;99.90
30134;DHT22;16946;49.984;10.672;2022-08-16T01:29:27;18.30;99.90
30134;DHT22;16946;49.984;10.672;2022-08-16T01:30:09;18.40;99.90
30134;DHT22;16946;49.984;10.672;2022-08-16T01:30:45;18.50;99.90
30134;DHT22;16946;49.984;10.672;2022-08-16T01:31:17;18.70;99.90
30134;DHT22;16946;49.984;10.672;2022-08-16T01:31:49;18.80;99.90
30134;DHT22;16946;49.984;10.672;2022-08-16T01:32:19;18.70;99.90
30134;DHT22;16946;49.984;10.672;2022-08-16T01:32:51;18.60;99.90
30134;DHT22;16946;49.984;10.672;2022-08-16T01:33:22;18.50;99.90
30134;DHT22;16946;49.984;10.672;2022-08-16T01:33:53;18.40;99.90
30134;DHT22;16946;49.984;10.672;2022-08-16T01:34:24;18.30;99.90
30134;DHT22;16946;49.984;10.672;2022-08-16T01:34:54;18.20;99.90
30134;DHT22;16946;49.984;10.672;2022-08-16T01:35:47;18.10;99.90
30134;DHT22;16946;49.984;10.672;2022-08-16T01:36:19;18.00;99.90
30134;DHT22;16946;49.984;10.672;2022-08-16T01:37:06;18.00;99.90
30134;DHT22;16946;49.984;10.672;2022-08-16T01:37:42;17.90;99.90
30134;DHT22;16946;49.984;10.672;2022-08-16T01:38:24;17.90;99.90
30134;DHT22;16946;49.984;10.672;2022-08-16T01:38:55;17.90;99.90
30134;DHT22;16946;49.984;10.672;2022-08-16T01:39:26;17.80;99.90
30134;DHT22;16946;49.984;10.672;2022-08-16T01:39:56;17.80;99.90
30134;DHT22;16946;49.984;10.672;2022-08-16T01:40:29;17.80;99.90
30134;DHT22;16946;49.984;10.672;2022-08-16T01:41:13;17.80;99.90
30134;DHT22;16946;49.984;10.672;2022-08-16T01:41:44;17.80;99.90
30134;DHT22;16946;49.984;10.672;2022-08-16T01:42:15;17.70;99.90
30134;DHT22;16946;49.984;10.672;2022-08-16T01:42:48;17.60;99.90
30134;DHT22;16946;49.984;10.672;2022-08-16T01:43:19;17.60;99.90
30134;DHT22;16946;49.984;10.672;2022-08-16T01:43:52;17.50;99.90
30134;DHT22;16946;49.984;10.672;2022-08-16T01:44:23;17.40;99.90
30134;DHT22;16946;49.984;10.672;2022-08-16T01:44:53;17.40;99.90
30134;DHT22;16946;49.984;10.672;2022-08-16T01:45:24;17.40;99.90
30134;DHT22;16946;49.984;10.672;2022-08-16T01:45:57;17.30;99.90
30134;DHT22;16946;49.984;10.672;2022-08-16T01:46:36;17.30;99.90
30134;DHT22;16946;49.984;10.672;2022-08-16T01:47:07;17.20;99.90
30134;DHT22;16946;49.984;10.672;2022-08-16T01:47:39;17.20;99.90
30134;DHT22;16946;49.984;10.672;2022-08-16T01:48:11;17.20;99.90
30134;DHT22;16946;49.984;10.672;2022-08-16T01:48:41;17.20;99.90
30134;DHT22;16946;49.984;10.672;2022-08-16T01:49:16;17.20;99.90
30134;DHT22;16946;49.984;10.672;2022-08-16T01:49:47;17.10;99.90
30134;DHT22;16946;49.984;10.672;2022-08-16T01:50:20;17.00;99.90
30134;DHT22;16946;49.984;10.672;2022-08-16T01:50:51;17.10;99.90
30134;DHT22;16946;49.984;10.672;2022-08-16T01:51:23;17.30;99.90
30134;DHT22;16946;49.984;10.672;2022-08-16T01:51:59;17.30;99.90
30134;DHT22;16946;49.984;10.672;2022-08-16T01:52:30;17.30;99.90
30134;DHT22;16946;49.984;10.672;2022-08-16T01:53:02;17.30;99.90
30134;DHT22;16946;49.984;10.672;2022-08-16T01:53:33;17.20;99.90
30134;DHT22;16946;49.984;10.672;2022-08-16T01:54:03;17.20;99.90
30134;DHT22;16946;49.984;10.672;2022-08-16T01:54:34;17.00;99.90
30134;DHT22;16946;49.984;10.672;2022-08-16T01:55:06;17.00;99.90
30134;DHT22;16946;49.984;10.672;2022-08-16T01:55:36;16.80;99.90
30134;DHT22;16946;49.984;10.672;2022-08-16T01:56:09;16.80;99.90
30134;DHT22;16946;49.984;10.672;2022-08-16T01:56:40;16.70;99.90
30134;DHT22;16946;49.984;10.672;2022-08-16T01:57:11;16.70;99.90
30134;DHT22;16946;49.984;10.672;2022-08-16T01:57:41;16.70;99.90
30134;DHT22;16946;49.984;10.672;2022-08-16T01:58:14;16.60;99.90
30134;DHT22;16946;49.984;10.672;2022-08-16T01:58:46;16.60;99.90
30134;DHT22;16946;49.984;10.672;2022-08-16T01:59:16;16.60;99.90
30134;DHT22;16946;49.984;10.672;2022-08-16T01:59:47;16.60;99.90
30134;DHT22;16946;49.984;10.672;2022-08-16T02:00:18;16.70;99.90
30134;DHT22;16946;49.984;10.672;2022-08-16T02:00:49;16.80;99.90
30134;DHT22;16946;49.984;10.672;2022-08-16T02:01:19;16.80;99.90
30134;DHT22;16946;49.984;10.672;2022-08-16T02:01:51;16.80;99.90
30134;DHT22;16946;49.984;10.672;2022-08-16T02:02:22;16.80;99.90
30134;DHT22;16946;49.984;10.672;2022-08-16T02:02:56;16.80;99.90
30134;DHT22;16946;49.984;10.672;2022-08-16T02:03:26;16.80;99.90
30134;DHT22;16946;49.984;10.672;2022-08-16T02:03:57;16.80;99.90
30134;DHT22;16946;49.984;10.672;2022-08-16T02:04:29;16.80;99.90
30134;DHT22;16946;49.984;10.672;2022-08-16T02:05:00;16.80;99.90
30134;DHT22;16946;49.984;10.672;2022-08-16T02:05:30;16.80;99.90
30134;DHT22;16946;49.984;10.672;2022-08-16T02:06:01;16.80;99.90
30134;DHT22;16946;49.984;10.672;2022-08-16T02:06:32;16.80;99.90
30134;DHT22;16946;49.984;10.672;2022-08-16T02:07:03;16.80;99.90
30134;DHT22;16946;49.984;10.672;2022-08-16T02:07:38;16.90;99.90
30134;DHT22;16946;49.984;10.672;2022-08-16T02:08:09;16.90;99.90
30134;DHT22;16946;49.984;10.672;2022-08-16T02:08:39;16.90;99.90
30134;DHT22;16946;49.984;10.672;2022-08-16T02:09:10;16.90;99.90
30134;DHT22;16946;49.984;10.672;2022-08-16T02:09:41;16.90;99.90
30134;DHT22;16946;49.984;10.672;2022-08-16T02:10:12;16.90;99.90
30134;DHT22;16946;49.984;10.672;2022-08-16T02:10:43;16.90;99.90
30134;DHT22;16946;49.984;10.672;2022-08-16T02:11:13;16.90;99.90
30134;DHT22;16946;49.984;10.672;2022-08-16T02:11:48;16.90;99.90
30134;DHT22;16946;49.984;10.672;2022-08-16T02:12:19;16.90;99.90
30134;DHT22;16946;49.984;10.672;2022-08-16T02:12:50;16.90;99.90
30134;DHT22;16946;49.984;10.672;2022-08-16T02:13:21;16.90;99.90
30134;DHT22;16946;49.984;10.672;2022-08-16T02:13:51;17.10;99.90
30134;DHT22;16946;49.984;10.672;2022-08-16T02:14:24;17.20;99.90
30134;DHT22;16946;49.984;10.672;2022-08-16T02:14:56;17.30;99.90
30134;DHT22;16946;49.984;10.672;2022-08-16T02:15:28;17.40;99.90
30134;DHT22;16946;49.984;10.672;2022-08-16T02:15:59;17.40;99.90
30134;DHT22;16946;49.984;10.672;2022-08-16T02:16:30;17.50;99.90
30134;DHT22;16946;49.984;10.672;2022-08-16T02:17:03;17.60;99.90
30134;DHT22;16946;49.984;10.672;2022-08-16T02:17:35;17.60;99.90
30134;DHT22;16946;49.984;10.672;2022-08-16T02:18:06;17.70;99.90
30134;DHT22;16946;49.984;10.672;2022-08-16T02:18:37;17.80;99.90
30134;DHT22;16946;49.984;10.672;2022-08-16T02:19:07;17.80;99.90
30134;DHT22;16946;49.984;10.672;2022-08-16T02:19:40;17.60;99.90
30134;DHT22;16946;49.984;10.672;2022-08-16T02:20:11;17.40;99.90
30134;DHT22;16946;49.984;10.672;2022-08-16T02:20:46;17.30;99.90
30134;DHT22;16946;49.984;10.672;2022-08-16T02:21:18;17.20;99.90
30134;DHT22;16946;49.984;10.672;2022-08-16T02:21:52;17.10;99.90
30134;DHT22;16946;49.984;10.672;2022-08-16T02:22:23;17.00;99.90
30134;DHT22;16946;49.984;10.672;2022-08-16T02:22:55;16.90;99.90
30134;DHT22;16946;49.984;10.672;2022-08-16T02:23:26;16.80;99.90
30134;DHT22;16946;49.984;10.672;2022-08-16T02:23:57;16.70;99.90
30134;DHT22;16946;49.984;10.672;2022-08-16T02:24:28;16.70;99.90
30134;DHT22;16946;49.984;10.672;2022-08-16T02:24:58;16.70;99.90
30134;DHT22;16946;49.984;10.672;2022-08-16T02:25:29;16.70;99.90
30134;DHT22;16946;49.984;10.672;2022-08-16T02:25:59;16.70;99.90
30134;DHT22;16946;49.984;10.672;2022-08-16T02:26:30;16.60;99.90
30134;DHT22;16946;49.984;10.672;2022-08-16T02:27:00;16.60;99.90
30134;DHT22;16946;49.984;10.672;2022-08-16T02:27:31;16.60;99.90
30134;DHT22;16946;49.984;10.672;2022-08-16T02:28:02;16.60;99.90
30134;DHT22;16946;49.984;10.672;2022-08-16T02:28:32;16.60;99.90
30134;DHT22;16946;49.984;10.672;2022-08-16T02:29:03;16.70;99.90
30134;DHT22;16946;49.984;10.672;2022-08-16T02:29:33;16.70;99.90
30134;DHT22;16946;49.984;10.672;2022-08-16T02:30:07;16.70;99.90
30134;DHT22;16946;49.984;10.672;2022-08-16T02:30:38;16.80;99.90
30134;DHT22;16946;49.984;10.672;2022-08-16T02:31:11;16.80;99.90
30134;DHT22;16946;49.984;10.672;2022-08-16T02:31:43;16.80;99.90
30134;DHT22;16946;49.984;10.672;2022-08-16T02:32:15;16.80;99.90
30134;DHT22;16946;49.984;10.672;2022-08-16T02:32:45;16.90;99.90
30134;DHT22;16946;49.984;10.672;2022-08-16T02:33:16;16.90;99.90
30134;DHT22;16946;49.984;10.672;2022-08-16T02:33:47;16.90;99.90
30134;DHT22;16946;49.984;10.672;2022-08-16T02:34:19;16.90;99.90
30134;DHT22;16946;49.984;10.672;2022-08-16T02:34:49;17.00;99.90
30134;DHT22;16946;49.984;10.672;2022-08-16T02:35:21;17.00;99.90
30134;DHT22;16946;49.984;10.672;2022-08-16T02:35:52;17.00;99.90
30134;DHT22;16946;49.984;10.672;2022-08-16T02:36:23;17.00;99.90
30134;DHT22;16946;49.984;10.672;2022-08-16T02:36:53;17.10;99.90
30134;DHT22;16946;49.984;10.672;2022-08-16T02:37:24;17.10;99.90
30134;DHT22;16946;49.984;10.672;2022-08-16T02:37:55;17.10;99.90
30134;DHT22;16946;49.984;10.672;2022-08-16T02:38:27;17.10;99.90
30134;DHT22;16946;49.984;10.672;2022-08-16T02:38:58;17.10;99.90
30134;DHT22;16946;49.984;10.672;2022-08-16T02:39:29;17.10;99.90
30134;DHT22;16946;49.984;10.672;2022-08-16T02:39:59;17.00;99.90
30134;DHT22;16946;49.984;10.672;2022-08-16T02:40:31;17.00;99.90
30134;DHT22;16946;49.984;10.672;2022-08-16T02:41:02;16.90;99.90
30134;DHT22;16946;49.984;10.672;2022-08-16T02:41:34;16.90;99.90
30134;DHT22;16946;49.984;10.672;2022-08-16T02:42:06;16.80;99.90
30134;DHT22;16946;49.984;10.672;2022-08-16T02:42:36;16.70;99.90
30134;DHT22;16946;49.984;10.672;2022-08-16T02:43:07;16.60;99.90
30134;DHT22;16946;49.984;10.672;2022-08-16T02:43:37;16.50;99.90
30134;DHT22;16946;49.984;10.672;2022-08-16T02:44:11;16.40;99.90
30134;DHT22;16946;49.984;10.672;2022-08-16T02:44:41;16.30;99.90
30134;DHT22;16946;49.984;10.672;2022-08-16T02:45:12;16.30;99.90
30134;DHT22;16946;49.984;10.672;2022-08-16T02:45:43;16.30;99.90
30134;DHT22;16946;49.984;10.672;2022-08-16T02:46:13;16.30;99.90
30134;DHT22;16946;49.984;10.672;2022-08-16T02:46:44;16.30;99.90
30134;DHT22;16946;49.984;10.672;2022-08-16T02:47:15;16.30;99.90
30134;DHT22;16946;49.984;10.672;2022-08-16T02:47:46;16.30;99.90
30134;DHT22;16946;49.984;10.672;2022-08-16T02:48:16;16.30;99.90
30134;DHT22;16946;49.984;10.672;2022-08-16T02:48:47;16.30;99.90
30134;DHT22;16946;49.984;10.672;2022-08-16T02:49:18;16.20;99.90
30134;DHT22;16946;49.984;10.672;2022-08-16T02:49:49;16.20;99.90
30134;DHT22;16946;49.984;10.672;2022-08-16T02:50:20;16.20;99.90
30134;DHT22;16946;49.984;10.672;2022-08-16T02:50:51;16.20;99.90
30134;DHT22;16946;49.984;10.672;2022-08-16T02:51:22;16.20;99.90
30134;DHT22;16946;49.984;10.672;2022-08-16T02:51:52;16.10;99.90
30134;DHT22;16946;49.984;10.672;2022-08-16T02:52:23;16.10;99.90
30134;DHT22;16946;49.984;10.672;2022-08-16T02:52:54;16.10;99.90
30134;DHT22;16946;49.984;10.672;2022-08-16T02:53:24;16.10;99.90
30134;DHT22;16946;49.984;10.672;2022-08-16T02:53:55;16.10;99.90
30134;DHT22;16946;49.984;10.672;2022-08-16T02:54:25;16.10;99.90
30134;DHT22;16946;49.984;10.672;2022-08-16T02:54:57;16.20;99.90
30134;DHT22;16946;49.984;10.672;2022-08-16T02:55:27;16.20;99.90
30134;DHT22;16946;49.984;10.672;2022-08-16T02:55:59;16.40;99.90
30134;DHT22;16946;49.984;10.672;2022-08-16T02:56:29;16.50;99.90
30134;DHT22;16946;49.984;10.672;2022-08-16T02:57:00;16.60;99.90
30134;DHT22;16946;49.984;10.672;2022-08-16T02:57:30;16.80;99.90
30134;DHT22;16946;49.984;10.672;2022-08-16T02:58:02;17.00;99.90
30134;DHT22;16946;49.984;10.672;2022-08-16T02:58:34;17.10;99.90
30134;DHT22;16946;49.984;10.672;2022-08-16T02:59:05;17.30;99.90
30134;DHT22;16946;49.984;10.672;2022-08-16T02:59:35;17.50;99.90
30134;DHT22;16946;49.984;10.672;2022-08-16T03:00:09;17.60;99.90
30134;DHT22;16946;49.984;10.672;2022-08-16T03:00:41;17.70;99.90
30134;DHT22;16946;49.984;10.672;2022-08-16T03:01:14;17.80;99.90
30134;DHT22;16946;49.984;10.672;2022-08-16T03:01:44;17.90;99.90
30134;DHT22;16946;49.984;10.672;2022-08-16T03:02:16;17.80;99.90
30134;DHT22;16946;49.984;10.672;2022-08-16T03:02:46;17.70;99.90
30134;DHT22;16946;49.984;10.672;2022-08-16T03:03:18;17.70;99.90
30134;DHT22;16946;49.984;10.672;2022-08-16T03:03:48;17.60;99.90
30134;DHT22;16946;49.984;10.672;2022-08-16T03:04:19;17.60;99.90
30134;DHT22;16946;49.984;10.672;2022-08-16T03:04:50;17.50;99.90
30134;DHT22;16946;49.984;10.672;2022-08-16T03:05:20;17.40;99.90
30134;DHT22;16946;49.984;10.672;2022-08-16T03:05:51;17.30;99.90
30134;DHT22;16946;49.984;10.672;2022-08-16T03:06:22;17.20;99.90
30134;DHT22;16946;49.984;10.672;2022-08-16T03:06:53;17.10;99.90
30134;DHT22;16946;49.984;10.672;2022-08-16T03:07:24;17.00;99.90
30134;DHT22;16946;49.984;10.672;2022-08-16T03:07:55;17.00;99.90
30134;DHT22;16946;49.984;10.672;2022-08-16T03:08:25;17.00;99.90
30134;DHT22;16946;49.984;10.672;2022-08-16T03:08:56;17.00;99.90
30134;DHT22;16946;49.984;10.672;2022-08-16T03:09:27;16.80;99.90
30134;DHT22;16946;49.984;10.672;2022-08-16T03:09:57;16.80;99.90
30134;DHT22;16946;49.984;10.672;2022-08-16T03:10:28;16.70;99.90
30134;DHT22;16946;49.984;10.672;2022-08-16T03:10:59;16.70;99.90
30134;DHT22;16946;49.984;10.672;2022-08-16T03:11:29;16.70;99.90
30134;DHT22;16946;49.984;10.672;2022-08-16T03:12:02;16.70;99.90
30134;DHT22;16946;49.984;10.672;2022-08-16T03:12:33;16.80;99.90
30134;DHT22;16946;49.984;10.672;2022-08-16T03:13:04;16.80;99.90
30134;DHT22;16946;49.984;10.672;2022-08-16T03:13:35;16.90;99.90
30134;DHT22;16946;49.984;10.672;2022-08-16T03:14:05;17.00;99.90
30134;DHT22;16946;49.984;10.672;2022-08-16T03:14:36;17.10;99.90
30134;DHT22;16946;49.984;10.672;2022-08-16T03:15:08;17.30;99.90
30134;DHT22;16946;49.984;10.672;2022-08-16T03:15:38;17.30;99.90
30134;DHT22;16946;49.984;10.672;2022-08-16T03:16:10;17.20;99.90
30134;DHT22;16946;49.984;10.672;2022-08-16T03:16:41;17.20;99.90
30134;DHT22;16946;49.984;10.672;2022-08-16T03:17:12;17.20;99.90
30134;DHT22;16946;49.984;10.672;2022-08-16T03:17:43;17.30;99.90
30134;DHT22;16946;49.984;10.672;2022-08-16T03:18:14;17.30;99.90
30134;DHT22;16946;49.984;10.672;2022-08-16T03:18:44;17.20;99.90
30134;DHT22;16946;49.984;10.672;2022-08-16T03:19:15;17.20;99.90
30134;DHT22;16946;49.984;10.672;2022-08-16T03:19:45;17.20;99.90
30134;DHT22;16946;49.984;10.672;2022-08-16T03:20:16;17.20;99.90
30134;DHT22;16946;49.984;10.672;2022-08-16T03:20:46;17.10;99.90